Emlyn, KY

11:00 PM EDT on October 20, 2019 (GMT -0400)
New Shiner Hill Road | | Change Station
Active Advisory: Special Statement

Elev 1236 ft 36.84 °N, 84.21 °W | Updated 8 seconds ago

Partly Cloudy
Partly Cloudy
54.3 °F
Feels Like 54.3 °F
N
0
Wind Variable Wind from SSE
Gusts 0.0 mph

Today
High -- | Low -- °F
--% Chance of Precip.
Yesterday
High -- | Low -- °F
Precip. -- in
Pressure 30.02 in
Visibility 10.0 miles
Clouds Scattered Clouds 200 ft
Overcast 1100 ft
Dew Point 54 °F
Humidity 98%
Rainfall 0.16 in
Snow Depth Not available.
7:48 AM 6:53 PM
Waning Gibbous, 54% visible
METAR K1A6 210255Z AUTO 00000KT 10SM SCT002 OVC011 13/13 A3002 RMK AO2 T01290129
Pressure 30.02 in
Visibility 10.0 miles
Clouds Scattered Clouds 200 ft
Overcast 1100 ft
Dew Point 54 °F
Humidity 98%
Rainfall 0.16 in
Snow Depth Not available.
7:48 AM 6:53 PM
Waning Gibbous, 54% visible
METAR K1A6 210255Z AUTO 00000KT 10SM SCT002 OVC011 13/13 A3002 RMK AO2 T01290129

Get Your Daily Forecast Email!

Thanks for signing up!

Be on the lookout for a verification email in your inbox.

You'll start receiving severe weather alerts in your inbox..

×

10-Day Weather Forecast

Almanac

Astronomy

Oct. 20, 2019 Rise Set
Actual Time
Civil Twilight
Nautical Twilight
Astronomical Twilight
Moon
Length of Visible Light
Length of Day
Tomorrow will be .
, % of the Moon is Illuminated

Today's Extremes

State Highs State Lows

Community

WunderPhotos

Category 6

Welcome to Category 6. This is the collective home for Weather Underground's featured writeups by Dr. Jeff Masters (right), Bob Henson (left), Chris Burt, and other regular contributors.

Nearby

Air Quality

  Air Quality AQ Index Pollutant
Not available.

Snow Depth

Station Depth Elevation

Earthquake Activity

City Distance Mag. Time & Date
Minimum magnitude displayed is 2.5.

Coastal Water Temperatures

Place Temperature

Stations

Nearby Weather Stations

Station Location Temp. Windchill Dew Point Humidity Wind Precip. Elev Updated Type
                   

Watches & Warnings

Special Statement
Issued: 10:37 PM EDT Oct. 20, 2019 – National Weather Service

... Areas of dense valley fog overnight...

Fog will develop across the area through the overnight hours, as
skies clear out from southwest to northeast. The fog will be
dense in low lying areas and near bodies of water. Visibilities
will be reduced to less than a quarter of a mile at times.
Travelers are urged to use caution and allow extra time to reach
their destinations.


Geogerian


1037 PM EDT sun Oct 20 2019

... Areas of dense valley fog overnight...

Fog will develop across the area through the overnight hours, as
skies clear out from southwest to northeast. The fog will be
dense in low lying areas and near bodies of water. Visibilities
will be reduced to less than a quarter of a mile at times.
Travelers are urged to use caution and allow extra time to reach
their destinations.


Geogerian